createdAt,value
2022-08-08T00:00:52.596Z,21.14
2022-08-08T00:03:31.429Z,21.08
2022-08-08T00:06:28.335Z,21.02
2022-08-08T00:09:25.362Z,20.97
2022-08-08T00:16:11.724Z,20.80
2022-08-08T00:25:59.401Z,20.73
2022-08-08T00:28:37.020Z,20.74
2022-08-08T00:32:20.780Z,20.78
2022-08-08T00:35:30.361Z,20.80
2022-08-08T00:38:31.404Z,20.80
2022-08-08T00:41:22.017Z,20.83
2022-08-08T00:44:12.180Z,20.85
2022-08-08T00:47:23.069Z,20.87
2022-08-08T00:50:12.366Z,20.86
2022-08-08T00:53:16.131Z,20.86
2022-08-08T00:56:35.141Z,20.89
2022-08-08T00:59:43.799Z,20.90
2022-08-08T01:06:52.285Z,20.89
2022-08-08T01:09:52.106Z,20.88
2022-08-08T01:12:42.302Z,20.88
2022-08-08T01:15:44.204Z,20.88
2022-08-08T01:19:02.720Z,20.88
2022-08-08T01:22:12.607Z,20.85
2022-08-08T01:25:40.193Z,20.84
2022-08-08T01:28:32.482Z,20.84
2022-08-08T01:35:29.757Z,20.80
2022-08-08T01:38:07.071Z,20.78
2022-08-08T01:41:01.126Z,20.76
2022-08-08T01:44:18.485Z,20.74
2022-08-08T01:48:15.542Z,20.73
2022-08-08T01:50:29.865Z,20.72
2022-08-08T01:55:45.986Z,20.71
2022-08-08T01:57:17.690Z,20.68
2022-08-08T02:00:01.998Z,20.69
2022-08-08T02:02:57.466Z,20.69
2022-08-08T02:05:56.485Z,20.69
2022-08-08T02:09:17.436Z,20.69
2022-08-08T02:11:58.984Z,20.70
2022-08-08T02:14:55.848Z,20.72
2022-08-08T02:18:05.543Z,20.70
2022-08-08T02:21:18.099Z,20.67
2022-08-08T02:24:34.116Z,20.66
2022-08-08T02:27:27.327Z,20.65
2022-08-08T02:30:24.763Z,20.64
2022-08-08T02:34:00.087Z,20.64
2022-08-08T02:36:39.648Z,20.64
2022-08-08T02:39:42.557Z,20.61
2022-08-08T02:44:34.948Z,20.60
2022-08-08T02:46:23.679Z,20.57
2022-08-08T02:49:47.835Z,20.54
2022-08-08T02:52:35.384Z,20.52
2022-08-08T02:55:37.775Z,20.51
2022-08-08T02:58:28.378Z,20.49
2022-08-08T03:01:47.235Z,20.46
2022-08-08T03:05:03.479Z,20.44
2022-08-08T03:07:57.742Z,20.41
2022-08-08T03:10:53.860Z,20.39
2022-08-08T03:15:59.173Z,20.39
2022-08-08T03:16:54.255Z,20.37
2022-08-08T03:19:38.553Z,20.35
2022-08-08T03:22:38.502Z,20.35
2022-08-08T03:24:56.838Z,20.34
2022-08-08T03:27:35.824Z,20.35
2022-08-08T03:30:19.071Z,20.37
2022-08-08T03:33:54.880Z,20.38
2022-08-08T03:36:01.166Z,20.34
2022-08-08T03:38:56.191Z,20.28
2022-08-08T03:42:13.340Z,20.16
2022-08-08T03:44:08.032Z,20.04
2022-08-08T03:46:48.634Z,20.00
2022-08-08T03:49:58.928Z,19.91
2022-08-08T03:52:12.826Z,19.83
2022-08-08T03:55:02.323Z,19.77
2022-08-08T03:58:34.328Z,19.76
2022-08-08T04:00:26.927Z,19.74
2022-08-08T04:03:11.634Z,19.72
2022-08-08T04:05:49.595Z,19.72
2022-08-08T04:08:33.860Z,19.71
2022-08-08T04:11:11.363Z,19.71
2022-08-08T04:14:33.065Z,19.71
2022-08-08T04:16:40.349Z,19.70
2022-08-08T04:19:23.287Z,19.69
2022-08-08T04:21:54.169Z,19.70
2022-08-08T04:24:29.357Z,19.69
2022-08-08T04:27:00.595Z,19.70
2022-08-08T04:29:33.298Z,19.71
2022-08-08T04:32:10.591Z,19.71
2022-08-08T04:34:49.277Z,19.72
2022-08-08T04:37:31.629Z,19.74
2022-08-08T04:40:10.517Z,19.76
2022-08-08T04:42:57.281Z,19.78
2022-08-08T04:45:46.377Z,19.80
2022-08-08T04:48:15.463Z,19.82
2022-08-08T04:50:45.951Z,19.83
2022-08-08T04:54:27.144Z,19.85
2022-08-08T04:56:07.846Z,19.87
2022-08-08T04:58:37.193Z,19.86
2022-08-08T05:01:11.012Z,19.85
2022-08-08T05:04:10.457Z,19.86
2022-08-08T05:06:39.297Z,19.87
2022-08-08T05:09:09.069Z,19.88
2022-08-08T05:11:41.130Z,19.91
2022-08-08T05:14:14.937Z,19.97
2022-08-08T05:17:00.596Z,20.06
2022-08-08T05:20:10.667Z,20.12
2022-08-08T05:22:32.688Z,20.18
2022-08-08T05:25:02.970Z,20.23
2022-08-08T05:27:33.180Z,20.27
2022-08-08T05:30:03.815Z,20.32
2022-08-08T05:32:50.952Z,20.40
2022-08-08T05:35:24.019Z,20.46
2022-08-08T05:38:30.600Z,20.54
2022-08-08T05:41:02.410Z,20.64
2022-08-08T05:43:39.154Z,20.74
2022-08-08T05:46:10.545Z,20.84
2022-08-08T05:48:41.886Z,20.92
2022-08-08T05:51:15.094Z,20.98
2022-08-08T05:54:25.661Z,21.04
2022-08-08T05:56:47.609Z,21.12
2022-08-08T05:59:59.053Z,21.18
2022-08-08T06:02:43.513Z,21.26
2022-08-08T06:05:35.474Z,21.38
2022-08-08T06:08:28.209Z,21.44
2022-08-08T06:11:05.203Z,21.49
2022-08-08T06:13:36.149Z,21.57
2022-08-08T06:16:19.178Z,21.81
2022-08-08T06:18:55.370Z,22.13
2022-08-08T06:21:32.541Z,22.30
2022-08-08T06:24:30.251Z,22.47
2022-08-08T06:27:06.271Z,22.66
2022-08-08T06:30:00.094Z,22.75
2022-08-08T06:32:50.206Z,22.91
2022-08-08T06:36:06.220Z,23.27
2022-08-08T06:38:17.446Z,23.78
2022-08-08T06:40:54.338Z,24.00
2022-08-08T06:43:57.506Z,24.06
2022-08-08T06:46:30.986Z,24.08
2022-08-08T06:49:00.995Z,24.05
2022-08-08T06:51:46.639Z,24.01
2022-08-08T06:54:20.258Z,23.99
2022-08-08T06:56:52.728Z,23.98
2022-08-08T06:59:21.623Z,23.97
2022-08-08T07:02:26.877Z,23.95
2022-08-08T07:04:55.825Z,24.02
2022-08-08T07:07:57.191Z,24.21
2022-08-08T07:10:35.525Z,24.70
2022-08-08T07:13:09.547Z,25.14
2022-08-08T07:16:04.370Z,25.38
2022-08-08T07:18:55.909Z,25.53
2022-08-08T07:21:32.147Z,25.67
2022-08-08T07:24:17.776Z,25.84
2022-08-08T07:26:53.286Z,25.79
2022-08-08T07:30:01.685Z,25.76
2022-08-08T07:32:15.789Z,25.67
2022-08-08T07:34:59.319Z,25.47
2022-08-08T07:37:55.772Z,25.37
2022-08-08T07:40:29.174Z,25.33
2022-08-08T07:43:01.389Z,25.32
2022-08-08T07:45:34.320Z,25.36
2022-08-08T07:48:05.123Z,25.42
2022-08-08T07:50:35.015Z,25.42
2022-08-08T07:54:01.550Z,25.39
2022-08-08T07:56:55.538Z,25.39
2022-08-08T07:59:27.217Z,25.44
2022-08-08T08:02:35.000Z,25.54
2022-08-08T08:05:03.703Z,25.62
2022-08-08T08:07:37.798Z,25.66
2022-08-08T08:10:13.287Z,25.75
2022-08-08T08:12:54.209Z,25.83
2022-08-08T08:15:31.804Z,25.88
2022-08-08T08:18:05.951Z,25.95
2022-08-08T08:20:44.474Z,26.04
2022-08-08T08:23:14.550Z,26.14
2022-08-08T08:25:56.721Z,26.29
2022-08-08T08:28:26.974Z,26.54
2022-08-08T08:31:05.054Z,26.81
2022-08-08T08:33:36.150Z,27.09
2022-08-08T08:36:20.026Z,27.46
2022-08-08T08:38:52.210Z,27.66
2022-08-08T08:41:30.979Z,27.79
2022-08-08T08:44:13.694Z,28.07
2022-08-08T08:46:47.438Z,28.37
2022-08-08T08:49:19.925Z,28.61
2022-08-08T08:51:54.363Z,28.96
2022-08-08T08:54:25.752Z,29.36
2022-08-08T08:56:56.409Z,29.64
2022-08-08T08:59:58.757Z,29.93
2022-08-08T09:02:21.835Z,30.22
2022-08-08T09:04:59.489Z,30.25
2022-08-08T09:07:38.985Z,30.17
2022-08-08T09:10:23.503Z,30.17
2022-08-08T09:13:00.617Z,30.20
2022-08-08T09:15:40.894Z,30.27
2022-08-08T09:18:13.125Z,30.55
2022-08-08T09:21:59.988Z,30.76
2022-08-08T09:23:40.673Z,30.90
2022-08-08T09:26:32.279Z,31.28
2022-08-08T09:29:08.195Z,31.62
2022-08-08T09:32:19.607Z,31.95
2022-08-08T09:34:51.656Z,32.21
2022-08-08T09:37:59.345Z,32.17
2022-08-08T09:40:21.327Z,32.06
2022-08-08T09:43:16.400Z,31.90
2022-08-08T09:46:06.628Z,31.94
2022-08-08T09:48:46.422Z,32.25
2022-08-08T09:51:26.843Z,32.75
2022-08-08T09:54:08.366Z,32.98
2022-08-08T09:56:45.362Z,32.90
2022-08-08T10:02:29.305Z,32.60
2022-08-08T10:05:23.036Z,32.45
2022-08-08T10:08:00.075Z,32.19
2022-08-08T10:10:33.912Z,31.94
2022-08-08T10:13:35.533Z,31.64
2022-08-08T10:16:05.178Z,31.29
2022-08-08T10:18:36.592Z,31.05
2022-08-08T10:21:25.713Z,30.89
2022-08-08T10:24:03.354Z,30.67
2022-08-08T10:26:57.438Z,30.50
2022-08-08T10:29:58.829Z,30.31
2022-08-08T10:32:38.259Z,30.13
2022-08-08T10:36:01.905Z,29.93
2022-08-08T10:38:07.868Z,29.56
2022-08-08T10:40:39.309Z,29.11
2022-08-08T10:43:09.901Z,28.59
2022-08-08T10:45:55.068Z,28.04
2022-08-08T10:48:55.841Z,27.52
2022-08-08T10:51:26.092Z,27.00
2022-08-08T10:53:58.300Z,26.62
2022-08-08T10:56:34.682Z,26.25
2022-08-08T10:59:14.136Z,25.91
2022-08-08T11:01:54.342Z,25.63
2022-08-08T11:04:29.575Z,25.35
2022-08-08T11:07:01.326Z,25.11
2022-08-08T11:09:32.213Z,24.91
2022-08-08T11:12:13.140Z,24.69
2022-08-08T11:15:00.816Z,24.51
2022-08-08T11:17:59.718Z,24.31
2022-08-08T11:20:27.278Z,24.12
2022-08-08T11:23:05.697Z,24.00
2022-08-08T11:25:52.963Z,23.88
2022-08-08T11:28:30.524Z,23.77
2022-08-08T11:31:03.651Z,23.68
2022-08-08T11:33:52.387Z,23.61
2022-08-08T11:36:27.569Z,23.53
2022-08-08T11:38:57.367Z,23.50
2022-08-08T11:41:33.647Z,23.46
2022-08-08T11:44:05.525Z,23.43
2022-08-08T11:46:34.948Z,23.40
2022-08-08T11:49:09.260Z,23.37
2022-08-08T11:51:49.914Z,23.32
2022-08-08T11:54:33.954Z,23.23
2022-08-08T11:57:17.330Z,23.16
2022-08-08T12:00:00.587Z,23.08
2022-08-08T12:02:51.479Z,23.02
2022-08-08T12:05:33.659Z,22.98
2022-08-08T12:08:04.383Z,22.93
2022-08-08T12:10:34.487Z,22.89
2022-08-08T12:13:12.382Z,22.79
2022-08-08T12:15:49.401Z,22.70
2022-08-08T12:18:24.458Z,22.58
2022-08-08T12:20:55.394Z,22.48
2022-08-08T12:23:30.631Z,22.37
2022-08-08T12:26:17.155Z,22.26
2022-08-08T12:28:59.699Z,22.20
2022-08-08T12:31:39.210Z,22.16
2022-08-08T12:34:38.016Z,22.09
2022-08-08T12:37:11.264Z,22.01
2022-08-08T12:40:00.722Z,21.91
2022-08-08T12:42:32.967Z,21.82
2022-08-08T12:45:58.297Z,21.75
2022-08-08T12:48:09.747Z,21.67
2022-08-08T12:50:49.594Z,21.63
2022-08-08T12:53:30.251Z,21.59
2022-08-08T12:56:19.392Z,21.54
2022-08-08T12:58:54.575Z,21.49
2022-08-08T13:01:37.750Z,21.44
2022-08-08T13:04:18.342Z,21.38
2022-08-08T13:06:55.179Z,21.33
2022-08-08T13:09:43.045Z,21.28
2022-08-08T13:12:30.753Z,21.24
2022-08-08T13:15:06.076Z,21.25
2022-08-08T13:18:09.287Z,21.26
2022-08-08T13:20:27.097Z,21.28
2022-08-08T13:23:29.924Z,21.31
2022-08-08T13:25:50.150Z,21.36
2022-08-08T13:28:32.106Z,21.42
2022-08-08T13:31:05.346Z,21.50
2022-08-08T13:33:42.103Z,21.59
2022-08-08T13:36:12.092Z,21.68
2022-08-08T13:38:40.865Z,21.78
2022-08-08T13:41:16.065Z,21.89
2022-08-08T13:43:49.920Z,21.97
2022-08-08T13:46:28.703Z,22.07
2022-08-08T13:49:11.487Z,22.17
2022-08-08T13:51:57.243Z,22.27
2022-08-08T13:54:29.560Z,22.35
2022-08-08T13:57:12.822Z,22.41
2022-08-08T13:59:48.533Z,22.41
2022-08-08T14:02:23.468Z,22.40
2022-08-08T14:05:04.845Z,22.39
2022-08-08T14:07:52.579Z,22.36
2022-08-08T14:10:32.959Z,22.29
2022-08-08T14:13:30.293Z,22.19
2022-08-08T14:16:16.041Z,22.08
2022-08-08T14:18:57.779Z,22.04
2022-08-08T14:21:48.829Z,22.02
2022-08-08T14:24:34.433Z,22.04
2022-08-08T14:27:07.683Z,22.02
2022-08-08T14:29:39.510Z,21.98
2022-08-08T14:32:17.081Z,21.97
2022-08-08T14:34:56.177Z,21.93
2022-08-08T14:37:27.918Z,21.91
2022-08-08T14:40:05.633Z,21.87
2022-08-08T14:42:55.378Z,21.83
2022-08-08T14:45:33.247Z,21.81
2022-08-08T14:48:27.429Z,21.82
2022-08-08T14:51:07.536Z,21.84
2022-08-08T14:53:54.527Z,21.88
2022-08-08T14:56:26.892Z,21.96
2022-08-08T14:58:57.908Z,22.05
2022-08-08T15:01:37.391Z,22.13
2022-08-08T15:04:11.794Z,22.17
2022-08-08T15:06:42.443Z,22.19
2022-08-08T15:09:12.786Z,22.22
2022-08-08T15:11:46.553Z,22.27
2022-08-08T15:14:25.089Z,22.33
2022-08-08T15:16:57.051Z,22.39
2022-08-08T15:19:28.212Z,22.44
2022-08-08T15:21:57.880Z,22.47
2022-08-08T15:24:31.367Z,22.48
2022-08-08T15:27:11.926Z,22.46
2022-08-08T15:29:49.835Z,22.43
2022-08-08T15:32:20.866Z,22.41
2022-08-08T15:34:51.596Z,22.41
2022-08-08T15:37:19.995Z,22.39
2022-08-08T15:39:48.695Z,22.39
2022-08-08T15:42:33.122Z,22.36
2022-08-08T15:45:02.534Z,22.29
2022-08-08T15:47:32.158Z,22.24
2022-08-08T15:50:01.666Z,22.21
2022-08-08T15:52:31.408Z,22.18
2022-08-08T15:55:01.872Z,22.16
2022-08-08T15:57:35.651Z,22.16
2022-08-08T16:00:27.316Z,22.16
2022-08-08T16:02:58.025Z,22.13
2022-08-08T16:05:35.587Z,22.11
2022-08-08T16:08:19.946Z,22.08
2022-08-08T16:13:02.012Z,22.07
2022-08-08T16:13:45.009Z,22.05
2022-08-08T16:16:18.029Z,22.04
2022-08-08T16:18:57.254Z,21.99
2022-08-08T16:21:30.928Z,21.97
2022-08-08T16:24:03.410Z,21.97
2022-08-08T16:26:36.313Z,21.96
2022-08-08T16:29:08.767Z,21.96
2022-08-08T16:31:44.737Z,21.99
2022-08-08T16:34:20.815Z,22.01
2022-08-08T16:36:52.780Z,22.03
2022-08-08T16:39:49.042Z,22.06
2022-08-08T16:42:13.913Z,22.10
2022-08-08T16:44:54.274Z,22.09
2022-08-08T16:47:40.247Z,22.07
2022-08-08T16:50:20.173Z,22.07
2022-08-08T16:55:06.468Z,22.08
2022-08-08T16:55:56.726Z,22.11
2022-08-08T16:58:29.457Z,22.14
2022-08-08T17:01:05.545Z,22.17
2022-08-08T17:03:58.591Z,22.22
2022-08-08T17:06:41.738Z,22.24
2022-08-08T17:09:14.882Z,22.27
2022-08-08T17:11:49.306Z,22.28
2022-08-08T17:14:27.212Z,22.27
2022-08-08T17:17:22.957Z,22.26
2022-08-08T17:19:55.459Z,22.23
2022-08-08T17:22:38.917Z,22.19
2022-08-08T17:25:11.670Z,22.10
2022-08-08T17:27:46.576Z,22.00
2022-08-08T17:30:27.443Z,21.93
2022-08-08T17:34:53.692Z,21.86
2022-08-08T17:35:56.191Z,21.78
2022-08-08T17:38:34.543Z,21.70
2022-08-08T17:41:02.944Z,21.64
2022-08-08T17:43:32.614Z,21.59
2022-08-08T17:46:55.726Z,21.58
2022-08-08T17:49:28.787Z,21.57
2022-08-08T17:52:11.265Z,21.55
2022-08-08T17:54:40.982Z,21.56
2022-08-08T17:57:14.629Z,21.55
2022-08-08T17:59:45.777Z,21.48
2022-08-08T18:02:18.605Z,21.44
2022-08-08T18:04:51.013Z,21.41
2022-08-08T18:08:03.575Z,21.40
2022-08-08T18:10:08.147Z,21.39
2022-08-08T18:12:37.168Z,21.38
2022-08-08T18:15:07.353Z,21.39
2022-08-08T18:18:05.407Z,21.39
2022-08-08T18:20:43.989Z,21.38
2022-08-08T18:23:15.925Z,21.37
2022-08-08T18:25:44.924Z,21.37
2022-08-08T18:28:14.347Z,21.31
2022-08-08T18:30:43.056Z,21.26
2022-08-08T18:33:36.933Z,21.22
2022-08-08T18:36:03.356Z,21.21
2022-08-08T18:38:34.323Z,21.20
2022-08-08T18:41:03.306Z,21.20
2022-08-08T18:43:42.829Z,21.19
2022-08-08T18:46:56.114Z,21.19
2022-08-08T18:49:01.028Z,21.18
2022-08-08T18:51:53.188Z,21.18
2022-08-08T18:54:22.572Z,21.10
2022-08-08T18:56:55.455Z,21.04
2022-08-08T18:59:23.857Z,20.98
2022-08-08T19:02:25.085Z,20.93
2022-08-08T19:04:40.685Z,20.89
2022-08-08T19:07:12.256Z,20.84
2022-08-08T19:09:48.955Z,20.76
2022-08-08T19:12:29.593Z,20.67
2022-08-08T19:14:58.059Z,20.62
2022-08-08T19:17:29.507Z,20.56
2022-08-08T19:20:17.514Z,20.50
2022-08-08T19:22:47.873Z,20.44
2022-08-08T19:26:01.223Z,20.41
2022-08-08T19:28:17.847Z,20.39
2022-08-08T19:31:03.266Z,20.37
2022-08-08T19:33:51.601Z,20.36
2022-08-08T19:36:27.457Z,20.32
2022-08-08T19:38:57.200Z,20.27
2022-08-08T19:41:33.582Z,20.22
2022-08-08T19:44:12.658Z,20.16
2022-08-08T19:46:50.603Z,20.08
2022-08-08T19:49:19.636Z,20.01
2022-08-08T19:51:49.104Z,19.97
2022-08-08T19:54:17.508Z,19.89
2022-08-08T19:56:48.629Z,19.80
2022-08-08T19:59:18.839Z,19.72
2022-08-08T20:02:03.552Z,19.64
2022-08-08T20:04:34.805Z,19.54
2022-08-08T20:08:29.786Z,19.41
2022-08-08T20:09:56.146Z,19.31
2022-08-08T20:12:32.464Z,19.21
2022-08-08T20:15:15.163Z,19.13
2022-08-08T20:17:47.861Z,19.06
2022-08-08T20:20:20.533Z,18.97
2022-08-08T20:22:54.024Z,18.88
2022-08-08T20:25:29.810Z,18.82
2022-08-08T20:28:06.401Z,18.76
2022-08-08T20:30:55.699Z,18.72
2022-08-08T20:35:57.850Z,18.67
2022-08-08T20:38:32.777Z,18.65
2022-08-08T20:41:17.751Z,18.62
2022-08-08T20:43:49.760Z,18.60
2022-08-08T20:46:25.309Z,18.59
2022-08-08T20:48:58.229Z,18.58
2022-08-08T20:51:32.410Z,18.50
2022-08-08T20:54:04.840Z,18.44
2022-08-08T20:57:04.682Z,18.42
2022-08-08T20:59:29.276Z,18.40
2022-08-08T21:02:07.654Z,18.39
2022-08-08T21:04:38.177Z,18.37
2022-08-08T21:07:08.141Z,18.36
2022-08-08T21:09:48.658Z,18.35
2022-08-08T21:12:33.050Z,18.36
2022-08-08T21:15:09.645Z,18.39
2022-08-08T21:17:38.308Z,18.39
2022-08-08T21:20:09.661Z,18.38
2022-08-08T21:22:38.050Z,18.38
2022-08-08T21:25:10.604Z,18.37
2022-08-08T21:28:09.271Z,18.36
2022-08-08T21:30:30.364Z,18.35
2022-08-08T21:32:59.160Z,18.34
2022-08-08T21:36:16.237Z,18.35
2022-08-08T21:38:18.257Z,18.36
2022-08-08T21:40:54.969Z,18.35
2022-08-08T21:43:33.571Z,18.36
2022-08-08T21:48:06.186Z,18.37
2022-08-08T21:48:54.538Z,18.36
2022-08-08T21:54:16.871Z,18.37
2022-08-08T21:54:51.772Z,18.36
2022-08-08T21:57:09.518Z,18.36
2022-08-08T22:00:01.982Z,18.34
2022-08-08T22:02:26.632Z,18.32
2022-08-08T22:04:58.859Z,18.31
2022-08-08T22:07:39.724Z,18.28
2022-08-08T22:10:18.434Z,18.21
2022-08-08T22:13:18.922Z,18.11
2022-08-08T22:15:58.691Z,18.04
2022-08-08T22:18:33.879Z,17.98
2022-08-08T22:21:10.721Z,17.97
2022-08-08T22:23:50.323Z,17.94
2022-08-08T22:26:28.806Z,17.90
2022-08-08T22:29:13.254Z,17.90
2022-08-08T22:32:01.830Z,17.87
2022-08-08T22:34:39.170Z,17.86
2022-08-08T22:37:27.792Z,17.85
2022-08-08T22:40:00.832Z,17.86
2022-08-08T22:42:31.893Z,17.84
2022-08-08T22:45:12.610Z,17.85
2022-08-08T22:47:47.385Z,17.86
2022-08-08T22:50:25.799Z,17.89
2022-08-08T22:54:29.335Z,17.91
2022-08-08T22:55:58.589Z,17.93
2022-08-08T22:58:33.012Z,17.94
2022-08-08T23:01:26.449Z,17.95
2022-08-08T23:03:57.098Z,17.95
2022-08-08T23:06:27.044Z,17.95
2022-08-08T23:08:59.002Z,17.94
2022-08-08T23:12:17.914Z,17.95
2022-08-08T23:14:21.489Z,17.97
2022-08-08T23:16:54.564Z,17.96
2022-08-08T23:19:32.279Z,17.94
2022-08-08T23:22:04.630Z,17.94
2022-08-08T23:24:36.630Z,17.94
2022-08-08T23:27:17.167Z,17.95
2022-08-08T23:30:00.226Z,17.91
2022-08-08T23:32:28.587Z,17.89
2022-08-08T23:34:59.021Z,17.88
2022-08-08T23:38:00.833Z,17.88
2022-08-08T23:40:21.861Z,17.89
2022-08-08T23:42:51.462Z,17.92
2022-08-08T23:48:59.779Z,17.88
2022-08-08T23:49:01.623Z,17.90
2022-08-08T23:50:58.107Z,17.82
2022-08-08T23:54:05.890Z,17.76
2022-08-08T23:56:24.085Z,17.74
2022-08-08T23:59:02.380Z,17.70
